sensor_id;sensor_type;location;lat;lon;timestamp;temperature;humidity
25352;DHT22;13304;48.464;8.712;2023-10-19T00:00:32;14.10;92.50
25352;DHT22;13304;48.464;8.712;2023-10-19T00:03:11;14.20;92.50
25352;DHT22;13304;48.464;8.712;2023-10-19T00:05:37;14.10;92.60
25352;DHT22;13304;48.464;8.712;2023-10-19T00:08:03;14.10;92.60
25352;DHT22;13304;48.464;8.712;2023-10-19T00:10:39;14.10;92.70
25352;DHT22;13304;48.464;8.712;2023-10-19T00:13:05;14.10;92.60
25352;DHT22;13304;48.464;8.712;2023-10-19T00:15:32;14.10;92.50
25352;DHT22;13304;48.464;8.712;2023-10-19T00:17:59;14.10;92.50
25352;DHT22;13304;48.464;8.712;2023-10-19T00:20:34;14.20;92.50
25352;DHT22;13304;48.464;8.712;2023-10-19T00:23:02;14.20;92.50
25352;DHT22;13304;48.464;8.712;2023-10-19T00:25:31;14.20;92.50
25352;DHT22;13304;48.464;8.712;2023-10-19T00:28:00;14.20;92.50
25352;DHT22;13304;48.464;8.712;2023-10-19T00:30:27;14.30;92.50
25352;DHT22;13304;48.464;8.712;2023-10-19T00:32:56;14.30;92.50
25352;DHT22;13304;48.464;8.712;2023-10-19T00:35:22;14.30;92.50
25352;DHT22;13304;48.464;8.712;2023-10-19T00:38:00;14.30;92.80
25352;DHT22;13304;48.464;8.712;2023-10-19T00:40:51;14.30;92.40
25352;DHT22;13304;48.464;8.712;2023-10-19T00:43:28;14.30;92.40
25352;DHT22;13304;48.464;8.712;2023-10-19T00:45:58;14.40;92.40
25352;DHT22;13304;48.464;8.712;2023-10-19T00:48:23;14.40;92.40
25352;DHT22;13304;48.464;8.712;2023-10-19T00:50:52;14.40;92.40
25352;DHT22;13304;48.464;8.712;2023-10-19T00:53:20;14.40;92.40
25352;DHT22;13304;48.464;8.712;2023-10-19T00:55:45;14.40;92.40
25352;DHT22;13304;48.464;8.712;2023-10-19T00:58:11;14.40;92.40
25352;DHT22;13304;48.464;8.712;2023-10-19T01:00:43;14.40;92.40
25352;DHT22;13304;48.464;8.712;2023-10-19T01:03:10;14.40;92.40
25352;DHT22;13304;48.464;8.712;2023-10-19T01:05:35;14.50;92.40
25352;DHT22;13304;48.464;8.712;2023-10-19T01:08:02;14.50;92.40
25352;DHT22;13304;48.464;8.712;2023-10-19T01:10:30;14.50;92.40
25352;DHT22;13304;48.464;8.712;2023-10-19T01:12:57;14.50;92.30
25352;DHT22;13304;48.464;8.712;2023-10-19T01:15:24;14.50;92.40
25352;DHT22;13304;48.464;8.712;2023-10-19T01:17:53;14.60;92.40
25352;DHT22;13304;48.464;8.712;2023-10-19T01:20:24;14.60;92.40
25352;DHT22;13304;48.464;8.712;2023-10-19T01:22:57;14.60;92.40
25352;DHT22;13304;48.464;8.712;2023-10-19T01:25:32;14.60;92.40
25352;DHT22;13304;48.464;8.712;2023-10-19T01:28:06;14.60;92.40
25352;DHT22;13304;48.464;8.712;2023-10-19T01:30:34;14.60;92.40
25352;DHT22;13304;48.464;8.712;2023-10-19T01:33:02;14.60;92.40
25352;DHT22;13304;48.464;8.712;2023-10-19T01:35:28;14.60;92.50
25352;DHT22;13304;48.464;8.712;2023-10-19T01:38:13;14.60;92.40
25352;DHT22;13304;48.464;8.712;2023-10-19T01:40:39;14.60;92.50
25352;DHT22;13304;48.464;8.712;2023-10-19T01:43:11;14.60;92.40
25352;DHT22;13304;48.464;8.712;2023-10-19T01:45:46;14.60;92.40
25352;DHT22;13304;48.464;8.712;2023-10-19T01:48:12;14.60;92.30
25352;DHT22;13304;48.464;8.712;2023-10-19T01:50:38;14.60;92.30
25352;DHT22;13304;48.464;8.712;2023-10-19T01:53:07;14.60;92.60
25352;DHT22;13304;48.464;8.712;2023-10-19T01:55:44;14.60;92.30
25352;DHT22;13304;48.464;8.712;2023-10-19T01:58:09;14.60;92.20
25352;DHT22;13304;48.464;8.712;2023-10-19T02:00:36;14.60;92.30
25352;DHT22;13304;48.464;8.712;2023-10-19T02:03:08;14.60;92.30
25352;DHT22;13304;48.464;8.712;2023-10-19T02:05:34;14.60;92.30
25352;DHT22;13304;48.464;8.712;2023-10-19T02:08:08;14.60;92.30
25352;DHT22;13304;48.464;8.712;2023-10-19T02:10:34;14.60;92.40
25352;DHT22;13304;48.464;8.712;2023-10-19T02:13:01;14.60;92.40
25352;DHT22;13304;48.464;8.712;2023-10-19T02:15:34;14.60;92.40
25352;DHT22;13304;48.464;8.712;2023-10-19T02:18:01;14.60;92.40
25352;DHT22;13304;48.464;8.712;2023-10-19T02:20:28;14.60;92.40
25352;DHT22;13304;48.464;8.712;2023-10-19T02:22:54;14.60;92.40
25352;DHT22;13304;48.464;8.712;2023-10-19T02:25:23;14.60;92.40
25352;DHT22;13304;48.464;8.712;2023-10-19T02:27:50;14.60;92.40
25352;DHT22;13304;48.464;8.712;2023-10-19T02:30:16;14.60;92.30
25352;DHT22;13304;48.464;8.712;2023-10-19T02:32:43;14.60;92.30
25352;DHT22;13304;48.464;8.712;2023-10-19T02:35:09;14.60;92.30
25352;DHT22;13304;48.464;8.712;2023-10-19T02:37:34;14.60;92.40
25352;DHT22;13304;48.464;8.712;2023-10-19T02:40:00;14.50;92.40
25352;DHT22;13304;48.464;8.712;2023-10-19T02:42:26;14.50;92.40
25352;DHT22;13304;48.464;8.712;2023-10-19T02:44:51;14.50;92.50
25352;DHT22;13304;48.464;8.712;2023-10-19T02:47:17;14.50;92.50
25352;DHT22;13304;48.464;8.712;2023-10-19T02:49:42;14.50;92.50
25352;DHT22;13304;48.464;8.712;2023-10-19T02:52:09;14.50;92.50
25352;DHT22;13304;48.464;8.712;2023-10-19T02:54:38;14.50;92.40
25352;DHT22;13304;48.464;8.712;2023-10-19T02:57:05;14.50;92.40
25352;DHT22;13304;48.464;8.712;2023-10-19T02:59:37;14.50;92.40
25352;DHT22;13304;48.464;8.712;2023-10-19T03:02:02;14.50;92.30
25352;DHT22;13304;48.464;8.712;2023-10-19T03:04:37;14.50;92.40
25352;DHT22;13304;48.464;8.712;2023-10-19T03:07:03;14.50;92.40
25352;DHT22;13304;48.464;8.712;2023-10-19T03:09:29;14.40;92.40
25352;DHT22;13304;48.464;8.712;2023-10-19T03:11:55;14.50;92.40
25352;DHT22;13304;48.464;8.712;2023-10-19T03:14:27;14.50;92.50
25352;DHT22;13304;48.464;8.712;2023-10-19T03:16:53;14.50;92.50
25352;DHT22;13304;48.464;8.712;2023-10-19T03:19:22;14.50;92.60
25352;DHT22;13304;48.464;8.712;2023-10-19T03:21:50;14.50;92.60
25352;DHT22;13304;48.464;8.712;2023-10-19T03:24:16;14.50;92.60
25352;DHT22;13304;48.464;8.712;2023-10-19T03:27:01;14.50;92.60
25352;DHT22;13304;48.464;8.712;2023-10-19T03:29:27;14.50;92.60
25352;DHT22;13304;48.464;8.712;2023-10-19T03:32:04;14.50;92.70
25352;DHT22;13304;48.464;8.712;2023-10-19T03:34:31;14.60;92.70
25352;DHT22;13304;48.464;8.712;2023-10-19T03:36:58;14.60;92.70
25352;DHT22;13304;48.464;8.712;2023-10-19T03:39:29;14.60;92.70
25352;DHT22;13304;48.464;8.712;2023-10-19T03:41:55;14.60;92.60
25352;DHT22;13304;48.464;8.712;2023-10-19T03:44:22;14.60;92.70
25352;DHT22;13304;48.464;8.712;2023-10-19T03:46:51;14.60;92.70
25352;DHT22;13304;48.464;8.712;2023-10-19T03:49:23;14.60;92.70
25352;DHT22;13304;48.464;8.712;2023-10-19T03:51:51;14.60;92.60
25352;DHT22;13304;48.464;8.712;2023-10-19T03:54:27;14.60;92.60
25352;DHT22;13304;48.464;8.712;2023-10-19T03:56:53;14.70;92.60
25352;DHT22;13304;48.464;8.712;2023-10-19T03:59:20;14.70;92.70
25352;DHT22;13304;48.464;8.712;2023-10-19T04:01:46;14.70;92.60
25352;DHT22;13304;48.464;8.712;2023-10-19T04:04:12;14.60;92.60
25352;DHT22;13304;48.464;8.712;2023-10-19T04:06:39;14.70;92.70
25352;DHT22;13304;48.464;8.712;2023-10-19T04:09:05;14.70;92.60
25352;DHT22;13304;48.464;8.712;2023-10-19T04:11:32;14.70;92.60
25352;DHT22;13304;48.464;8.712;2023-10-19T04:14:17;14.70;92.60
25352;DHT22;13304;48.464;8.712;2023-10-19T04:16:45;14.70;92.60
25352;DHT22;13304;48.464;8.712;2023-10-19T04:19:13;14.70;92.60
25352;DHT22;13304;48.464;8.712;2023-10-19T04:21:40;14.70;92.50
25352;DHT22;13304;48.464;8.712;2023-10-19T04:24:09;14.70;92.50
25352;DHT22;13304;48.464;8.712;2023-10-19T04:26:35;14.70;92.50
25352;DHT22;13304;48.464;8.712;2023-10-19T04:29:04;14.70;92.50
25352;DHT22;13304;48.464;8.712;2023-10-19T04:31:39;14.70;92.50
25352;DHT22;13304;48.464;8.712;2023-10-19T04:34:14;14.70;92.50
25352;DHT22;13304;48.464;8.712;2023-10-19T04:36:39;14.70;92.40
25352;DHT22;13304;48.464;8.712;2023-10-19T04:39:05;14.70;92.50
25352;DHT22;13304;48.464;8.712;2023-10-19T04:41:34;14.70;92.50
25352;DHT22;13304;48.464;8.712;2023-10-19T04:44:00;14.70;92.60
25352;DHT22;13304;48.464;8.712;2023-10-19T04:46:26;14.70;92.60
25352;DHT22;13304;48.464;8.712;2023-10-19T04:48:54;14.70;92.60
25352;DHT22;13304;48.464;8.712;2023-10-19T04:51:19;14.70;92.60
25352;DHT22;13304;48.464;8.712;2023-10-19T04:53:46;14.70;92.60
25352;DHT22;13304;48.464;8.712;2023-10-19T04:56:11;14.70;92.60
25352;DHT22;13304;48.464;8.712;2023-10-19T04:58:38;14.70;92.60
25352;DHT22;13304;48.464;8.712;2023-10-19T05:01:04;14.70;92.60
25352;DHT22;13304;48.464;8.712;2023-10-19T05:03:30;14.70;92.60
25352;DHT22;13304;48.464;8.712;2023-10-19T05:05:56;14.70;92.50
25352;DHT22;13304;48.464;8.712;2023-10-19T05:08:22;14.70;92.60
25352;DHT22;13304;48.464;8.712;2023-10-19T05:10:53;14.70;92.50
25352;DHT22;13304;48.464;8.712;2023-10-19T05:13:20;14.80;92.60
25352;DHT22;13304;48.464;8.712;2023-10-19T05:15:45;14.80;92.70
25352;DHT22;13304;48.464;8.712;2023-10-19T05:18:11;14.80;92.60
25352;DHT22;13304;48.464;8.712;2023-10-19T05:20:37;14.80;92.70
25352;DHT22;13304;48.464;8.712;2023-10-19T05:23:06;14.80;92.70
25352;DHT22;13304;48.464;8.712;2023-10-19T05:25:32;14.80;92.70
25352;DHT22;13304;48.464;8.712;2023-10-19T05:27:57;14.80;92.70
25352;DHT22;13304;48.464;8.712;2023-10-19T05:30:24;14.80;92.80
25352;DHT22;13304;48.464;8.712;2023-10-19T05:32:50;14.80;92.80
25352;DHT22;13304;48.464;8.712;2023-10-19T05:35:16;14.80;92.80
25352;DHT22;13304;48.464;8.712;2023-10-19T05:37:48;14.90;93.00
25352;DHT22;13304;48.464;8.712;2023-10-19T05:40:14;14.90;92.90
25352;DHT22;13304;48.464;8.712;2023-10-19T05:42:40;14.90;92.90
25352;DHT22;13304;48.464;8.712;2023-10-19T05:45:06;14.90;93.00
25352;DHT22;13304;48.464;8.712;2023-10-19T05:47:31;15.00;93.00
25352;DHT22;13304;48.464;8.712;2023-10-19T05:49:57;15.00;92.90
25352;DHT22;13304;48.464;8.712;2023-10-19T05:52:22;15.00;92.90
25352;DHT22;13304;48.464;8.712;2023-10-19T05:54:48;15.00;93.00
25352;DHT22;13304;48.464;8.712;2023-10-19T05:57:15;15.00;93.00
25352;DHT22;13304;48.464;8.712;2023-10-19T05:59:41;15.10;93.00
25352;DHT22;13304;48.464;8.712;2023-10-19T06:02:07;15.10;92.90
25352;DHT22;13304;48.464;8.712;2023-10-19T06:04:33;15.10;92.90
25352;DHT22;13304;48.464;8.712;2023-10-19T06:06:58;15.10;92.90
25352;DHT22;13304;48.464;8.712;2023-10-19T06:09:24;15.10;92.80
25352;DHT22;13304;48.464;8.712;2023-10-19T06:11:55;15.10;92.80
25352;DHT22;13304;48.464;8.712;2023-10-19T06:14:20;15.20;92.90
25352;DHT22;13304;48.464;8.712;2023-10-19T06:16:46;15.20;92.90
25352;DHT22;13304;48.464;8.712;2023-10-19T06:19:11;15.20;92.80
25352;DHT22;13304;48.464;8.712;2023-10-19T06:21:37;15.20;92.80
25352;DHT22;13304;48.464;8.712;2023-10-19T06:24:02;15.20;92.90
25352;DHT22;13304;48.464;8.712;2023-10-19T06:26:28;15.20;92.80
25352;DHT22;13304;48.464;8.712;2023-10-19T06:28:54;15.20;93.00
25352;DHT22;13304;48.464;8.712;2023-10-19T06:31:25;15.20;92.90
25352;DHT22;13304;48.464;8.712;2023-10-19T06:33:51;15.20;92.90
25352;DHT22;13304;48.464;8.712;2023-10-19T06:36:17;15.30;93.00
25352;DHT22;13304;48.464;8.712;2023-10-19T06:38:44;15.30;92.90
25352;DHT22;13304;48.464;8.712;2023-10-19T06:41:10;15.30;92.80
25352;DHT22;13304;48.464;8.712;2023-10-19T06:43:37;15.30;92.70
25352;DHT22;13304;48.464;8.712;2023-10-19T06:46:02;15.30;92.70
25352;DHT22;13304;48.464;8.712;2023-10-19T06:48:29;15.30;92.70
25352;DHT22;13304;48.464;8.712;2023-10-19T06:50:55;15.30;92.70
25352;DHT22;13304;48.464;8.712;2023-10-19T06:53:21;15.30;92.80
25352;DHT22;13304;48.464;8.712;2023-10-19T06:55:47;15.30;92.90
25352;DHT22;13304;48.464;8.712;2023-10-19T06:58:13;15.40;92.80
25352;DHT22;13304;48.464;8.712;2023-10-19T07:00:40;15.40;92.90
25352;DHT22;13304;48.464;8.712;2023-10-19T07:03:08;15.40;92.80
25352;DHT22;13304;48.464;8.712;2023-10-19T07:05:34;15.40;92.90
25352;DHT22;13304;48.464;8.712;2023-10-19T07:08:00;15.40;92.90
25352;DHT22;13304;48.464;8.712;2023-10-19T07:10:27;15.40;92.90
25352;DHT22;13304;48.464;8.712;2023-10-19T07:12:53;15.40;92.90
25352;DHT22;13304;48.464;8.712;2023-10-19T07:15:19;15.40;92.90
25352;DHT22;13304;48.464;8.712;2023-10-19T07:17:46;15.40;92.90
25352;DHT22;13304;48.464;8.712;2023-10-19T07:20:12;15.40;92.90
25352;DHT22;13304;48.464;8.712;2023-10-19T07:22:57;15.40;92.90
25352;DHT22;13304;48.464;8.712;2023-10-19T07:25:28;15.40;92.90
25352;DHT22;13304;48.464;8.712;2023-10-19T07:27:54;15.50;93.00
25352;DHT22;13304;48.464;8.712;2023-10-19T07:30:20;15.50;93.10
25352;DHT22;13304;48.464;8.712;2023-10-19T07:32:49;15.50;93.00
25352;DHT22;13304;48.464;8.712;2023-10-19T07:35:18;15.50;93.00
25352;DHT22;13304;48.464;8.712;2023-10-19T07:37:45;15.50;93.10
25352;DHT22;13304;48.464;8.712;2023-10-19T07:40:10;15.50;93.20
25352;DHT22;13304;48.464;8.712;2023-10-19T07:42:42;15.50;93.10
25352;DHT22;13304;48.464;8.712;2023-10-19T07:45:08;15.60;93.20
25352;DHT22;13304;48.464;8.712;2023-10-19T07:47:39;15.60;93.30
25352;DHT22;13304;48.464;8.712;2023-10-19T07:50:06;15.60;93.30
25352;DHT22;13304;48.464;8.712;2023-10-19T07:52:34;15.70;93.40
25352;DHT22;13304;48.464;8.712;2023-10-19T07:55:01;15.70;93.40
25352;DHT22;13304;48.464;8.712;2023-10-19T07:57:27;15.70;93.60
25352;DHT22;13304;48.464;8.712;2023-10-19T07:59:54;15.80;93.60
25352;DHT22;13304;48.464;8.712;2023-10-19T08:02:22;15.80;93.50
25352;DHT22;13304;48.464;8.712;2023-10-19T08:04:50;15.90;93.70
25352;DHT22;13304;48.464;8.712;2023-10-19T08:07:17;16.00;93.60
25352;DHT22;13304;48.464;8.712;2023-10-19T08:09:42;16.00;93.60
25352;DHT22;13304;48.464;8.712;2023-10-19T08:12:09;16.00;93.50
25352;DHT22;13304;48.464;8.712;2023-10-19T08:14:35;16.10;93.40
25352;DHT22;13304;48.464;8.712;2023-10-19T08:17:00;16.10;93.40
25352;DHT22;13304;48.464;8.712;2023-10-19T08:19:27;16.10;93.40
25352;DHT22;13304;48.464;8.712;2023-10-19T08:21:53;16.10;93.30
25352;DHT22;13304;48.464;8.712;2023-10-19T08:24:18;16.10;93.20
25352;DHT22;13304;48.464;8.712;2023-10-19T08:26:46;16.20;93.30
25352;DHT22;13304;48.464;8.712;2023-10-19T08:29:12;16.20;93.20
25352;DHT22;13304;48.464;8.712;2023-10-19T08:31:40;16.20;93.20
25352;DHT22;13304;48.464;8.712;2023-10-19T08:34:07;16.20;93.00
25352;DHT22;13304;48.464;8.712;2023-10-19T08:36:35;16.20;92.50
25352;DHT22;13304;48.464;8.712;2023-10-19T08:39:01;16.30;92.90
25352;DHT22;13304;48.464;8.712;2023-10-19T08:41:34;16.30;93.20
25352;DHT22;13304;48.464;8.712;2023-10-19T08:44:01;16.40;93.10
25352;DHT22;13304;48.464;8.712;2023-10-19T08:46:27;16.40;93.30
25352;DHT22;13304;48.464;8.712;2023-10-19T08:48:55;16.40;93.20
25352;DHT22;13304;48.464;8.712;2023-10-19T08:51:22;16.50;93.40
25352;DHT22;13304;48.464;8.712;2023-10-19T08:53:52;16.50;92.80
25352;DHT22;13304;48.464;8.712;2023-10-19T08:56:18;16.60;92.60
25352;DHT22;13304;48.464;8.712;2023-10-19T08:58:44;16.60;93.20
25352;DHT22;13304;48.464;8.712;2023-10-19T09:01:11;16.70;93.50
25352;DHT22;13304;48.464;8.712;2023-10-19T09:03:37;16.70;93.40
25352;DHT22;13304;48.464;8.712;2023-10-19T09:06:04;16.80;93.50
25352;DHT22;13304;48.464;8.712;2023-10-19T09:08:30;16.80;93.20
25352;DHT22;13304;48.464;8.712;2023-10-19T09:11:06;16.90;93.50
25352;DHT22;13304;48.464;8.712;2023-10-19T09:13:42;17.00;93.80
25352;DHT22;13304;48.464;8.712;2023-10-19T09:16:08;17.00;93.70
25352;DHT22;13304;48.464;8.712;2023-10-19T09:18:35;17.00;93.80
25352;DHT22;13304;48.464;8.712;2023-10-19T09:21:00;17.10;93.90
25352;DHT22;13304;48.464;8.712;2023-10-19T09:23:46;17.20;93.80
25352;DHT22;13304;48.464;8.712;2023-10-19T09:26:12;17.20;93.80
25352;DHT22;13304;48.464;8.712;2023-10-19T09:28:38;17.30;93.80
25352;DHT22;13304;48.464;8.712;2023-10-19T09:31:05;17.30;93.80
25352;DHT22;13304;48.464;8.712;2023-10-19T09:33:32;17.40;93.90
25352;DHT22;13304;48.464;8.712;2023-10-19T09:35:59;17.40;93.80
25352;DHT22;13304;48.464;8.712;2023-10-19T09:38:26;17.40;93.70
25352;DHT22;13304;48.464;8.712;2023-10-19T09:40:52;17.50;93.40
25352;DHT22;13304;48.464;8.712;2023-10-19T09:43:41;17.50;93.60
25352;DHT22;13304;48.464;8.712;2023-10-19T09:46:09;17.50;93.30
25352;DHT22;13304;48.464;8.712;2023-10-19T09:48:41;17.60;93.50
25352;DHT22;13304;48.464;8.712;2023-10-19T09:51:07;17.60;93.80
25352;DHT22;13304;48.464;8.712;2023-10-19T09:53:34;17.70;93.70
25352;DHT22;13304;48.464;8.712;2023-10-19T09:56:02;17.70;93.60
25352;DHT22;13304;48.464;8.712;2023-10-19T09:58:36;17.70;93.80
25352;DHT22;13304;48.464;8.712;2023-10-19T10:01:04;17.80;93.90
25352;DHT22;13304;48.464;8.712;2023-10-19T10:06:09;17.90;93.80
25352;DHT22;13304;48.464;8.712;2023-10-19T10:08:38;17.90;93.80
25352;DHT22;13304;48.464;8.712;2023-10-19T10:11:15;18.00;93.80
25352;DHT22;13304;48.464;8.712;2023-10-19T10:13:42;18.00;93.80
25352;DHT22;13304;48.464;8.712;2023-10-19T10:16:08;18.00;93.70
25352;DHT22;13304;48.464;8.712;2023-10-19T10:18:34;18.00;93.60
25352;DHT22;13304;48.464;8.712;2023-10-19T10:21:07;18.00;93.60
25352;DHT22;13304;48.464;8.712;2023-10-19T10:26:13;18.00;93.40
25352;DHT22;13304;48.464;8.712;2023-10-19T10:28:39;18.00;93.30
25352;DHT22;13304;48.464;8.712;2023-10-19T10:33:37;18.00;93.20
25352;DHT22;13304;48.464;8.712;2023-10-19T10:36:05;18.00;93.20
25352;DHT22;13304;48.464;8.712;2023-10-19T10:38:33;17.90;93.10
25352;DHT22;13304;48.464;8.712;2023-10-19T10:40:58;17.90;93.10
25352;DHT22;13304;48.464;8.712;2023-10-19T10:43:24;17.90;93.20
25352;DHT22;13304;48.464;8.712;2023-10-19T10:45:49;17.80;93.10
25352;DHT22;13304;48.464;8.712;2023-10-19T10:48:16;17.80;93.10
25352;DHT22;13304;48.464;8.712;2023-10-19T10:50:42;17.80;93.10
25352;DHT22;13304;48.464;8.712;2023-10-19T10:53:10;17.70;93.10
25352;DHT22;13304;48.464;8.712;2023-10-19T10:55:43;17.70;93.10
25352;DHT22;13304;48.464;8.712;2023-10-19T10:58:08;17.70;93.10
25352;DHT22;13304;48.464;8.712;2023-10-19T11:00:34;17.70;93.20
25352;DHT22;13304;48.464;8.712;2023-10-19T11:03:07;17.60;93.20
25352;DHT22;13304;48.464;8.712;2023-10-19T11:05:36;17.60;93.30
25352;DHT22;13304;48.464;8.712;2023-10-19T11:10:31;17.60;93.40
25352;DHT22;13304;48.464;8.712;2023-10-19T11:13:03;17.60;93.40
25352;DHT22;13304;48.464;8.712;2023-10-19T11:15:29;17.60;93.50
25352;DHT22;13304;48.464;8.712;2023-10-19T11:17:55;17.60;93.70
25352;DHT22;13304;48.464;8.712;2023-10-19T11:20:24;17.60;93.80
25352;DHT22;13304;48.464;8.712;2023-10-19T11:22:51;17.60;93.80
25352;DHT22;13304;48.464;8.712;2023-10-19T11:25:17;17.60;93.90
25352;DHT22;13304;48.464;8.712;2023-10-19T11:27:43;17.60;93.90
25352;DHT22;13304;48.464;8.712;2023-10-19T11:30:09;17.60;93.90
25352;DHT22;13304;48.464;8.712;2023-10-19T11:32:37;17.60;93.90
25352;DHT22;13304;48.464;8.712;2023-10-19T11:35:06;17.60;93.90
25352;DHT22;13304;48.464;8.712;2023-10-19T11:37:51;17.60;93.90
25352;DHT22;13304;48.464;8.712;2023-10-19T11:40:18;17.60;93.90
25352;DHT22;13304;48.464;8.712;2023-10-19T11:42:44;17.60;93.90
25352;DHT22;13304;48.464;8.712;2023-10-19T11:45:10;17.60;93.90
25352;DHT22;13304;48.464;8.712;2023-10-19T11:47:37;17.60;93.90
25352;DHT22;13304;48.464;8.712;2023-10-19T11:50:02;17.60;94.00
25352;DHT22;13304;48.464;8.712;2023-10-19T11:52:28;17.60;94.00
25352;DHT22;13304;48.464;8.712;2023-10-19T11:54:55;17.60;94.00
25352;DHT22;13304;48.464;8.712;2023-10-19T11:57:21;17.60;94.00
25352;DHT22;13304;48.464;8.712;2023-10-19T11:59:47;17.60;94.10
25352;DHT22;13304;48.464;8.712;2023-10-19T12:02:20;17.60;94.10
25352;DHT22;13304;48.464;8.712;2023-10-19T12:04:46;17.60;94.10
25352;DHT22;13304;48.464;8.712;2023-10-19T12:07:12;17.60;94.00
25352;DHT22;13304;48.464;8.712;2023-10-19T12:09:37;17.60;94.00
25352;DHT22;13304;48.464;8.712;2023-10-19T12:12:06;17.60;94.00
25352;DHT22;13304;48.464;8.712;2023-10-19T12:14:32;17.60;94.00
25352;DHT22;13304;48.464;8.712;2023-10-19T12:17:01;17.60;94.00
25352;DHT22;13304;48.464;8.712;2023-10-19T12:19:29;17.60;94.00
25352;DHT22;13304;48.464;8.712;2023-10-19T12:21:55;17.60;94.10
25352;DHT22;13304;48.464;8.712;2023-10-19T12:24:20;17.70;94.20
25352;DHT22;13304;48.464;8.712;2023-10-19T12:26:46;17.70;94.50
25352;DHT22;13304;48.464;8.712;2023-10-19T12:29:12;17.70;94.30
25352;DHT22;13304;48.464;8.712;2023-10-19T12:31:40;17.70;94.20
25352;DHT22;13304;48.464;8.712;2023-10-19T12:34:08;17.70;94.30
25352;DHT22;13304;48.464;8.712;2023-10-19T12:36:36;17.70;94.30
25352;DHT22;13304;48.464;8.712;2023-10-19T12:39:02;17.70;94.20
25352;DHT22;13304;48.464;8.712;2023-10-19T12:41:30;17.70;94.30
25352;DHT22;13304;48.464;8.712;2023-10-19T12:43:57;17.80;94.30
25352;DHT22;13304;48.464;8.712;2023-10-19T12:46:23;17.80;94.30
25352;DHT22;13304;48.464;8.712;2023-10-19T12:48:51;17.80;94.30
25352;DHT22;13304;48.464;8.712;2023-10-19T12:51:16;17.80;94.30
25352;DHT22;13304;48.464;8.712;2023-10-19T12:53:48;17.80;94.50
25352;DHT22;13304;48.464;8.712;2023-10-19T12:56:14;17.80;94.50
25352;DHT22;13304;48.464;8.712;2023-10-19T12:58:40;17.90;94.50
25352;DHT22;13304;48.464;8.712;2023-10-19T13:01:06;17.90;94.50
25352;DHT22;13304;48.464;8.712;2023-10-19T13:03:32;17.90;94.50
25352;DHT22;13304;48.464;8.712;2023-10-19T13:05:58;17.90;94.40
25352;DHT22;13304;48.464;8.712;2023-10-19T13:08:23;17.90;94.30
25352;DHT22;13304;48.464;8.712;2023-10-19T13:10:52;18.00;94.30
25352;DHT22;13304;48.464;8.712;2023-10-19T13:13:18;18.00;94.30
25352;DHT22;13304;48.464;8.712;2023-10-19T13:15:44;17.90;94.30
25352;DHT22;13304;48.464;8.712;2023-10-19T13:18:10;17.90;94.30
25352;DHT22;13304;48.464;8.712;2023-10-19T13:20:37;17.90;94.30
25352;DHT22;13304;48.464;8.712;2023-10-19T13:23:03;18.00;94.30
25352;DHT22;13304;48.464;8.712;2023-10-19T13:25:30;17.90;94.30
25352;DHT22;13304;48.464;8.712;2023-10-19T13:28:11;17.90;94.30
25352;DHT22;13304;48.464;8.712;2023-10-19T13:30:51;18.00;94.30
25352;DHT22;13304;48.464;8.712;2023-10-19T13:33:18;18.00;94.40
25352;DHT22;13304;48.464;8.712;2023-10-19T13:35:46;18.00;94.30
25352;DHT22;13304;48.464;8.712;2023-10-19T13:38:13;18.00;94.40
25352;DHT22;13304;48.464;8.712;2023-10-19T13:40:41;18.00;94.40
25352;DHT22;13304;48.464;8.712;2023-10-19T13:43:07;18.00;94.40
25352;DHT22;13304;48.464;8.712;2023-10-19T13:45:34;18.00;94.40
25352;DHT22;13304;48.464;8.712;2023-10-19T13:48:03;18.00;94.40
25352;DHT22;13304;48.464;8.712;2023-10-19T13:50:29;18.00;94.40
25352;DHT22;13304;48.464;8.712;2023-10-19T13:52:56;18.00;94.30
25352;DHT22;13304;48.464;8.712;2023-10-19T13:55:22;17.90;94.30
25352;DHT22;13304;48.464;8.712;2023-10-19T13:57:48;17.90;94.20
25352;DHT22;13304;48.464;8.712;2023-10-19T14:00:14;17.90;94.20
25352;DHT22;13304;48.464;8.712;2023-10-19T14:02:59;17.90;94.20
25352;DHT22;13304;48.464;8.712;2023-10-19T14:05:26;17.90;94.20
25352;DHT22;13304;48.464;8.712;2023-10-19T14:07:52;17.90;94.20
25352;DHT22;13304;48.464;8.712;2023-10-19T14:10:18;17.90;94.20
25352;DHT22;13304;48.464;8.712;2023-10-19T14:12:45;17.90;94.20
25352;DHT22;13304;48.464;8.712;2023-10-19T14:15:20;17.80;94.20
25352;DHT22;13304;48.464;8.712;2023-10-19T14:17:46;17.80;94.40
25352;DHT22;13304;48.464;8.712;2023-10-19T14:20:13;17.80;94.50
25352;DHT22;13304;48.464;8.712;2023-10-19T14:22:39;17.80;94.60
25352;DHT22;13304;48.464;8.712;2023-10-19T14:25:06;17.80;94.70
25352;DHT22;13304;48.464;8.712;2023-10-19T14:27:33;17.80;94.80
25352;DHT22;13304;48.464;8.712;2023-10-19T14:30:00;17.70;94.80
25352;DHT22;13304;48.464;8.712;2023-10-19T14:32:25;17.70;94.90
25352;DHT22;13304;48.464;8.712;2023-10-19T14:34:52;17.80;94.90
25352;DHT22;13304;48.464;8.712;2023-10-19T14:37:19;17.70;95.00
25352;DHT22;13304;48.464;8.712;2023-10-19T14:39:44;17.80;95.10
25352;DHT22;13304;48.464;8.712;2023-10-19T14:42:10;17.70;95.20
25352;DHT22;13304;48.464;8.712;2023-10-19T14:44:36;17.80;95.70
25352;DHT22;13304;48.464;8.712;2023-10-19T14:47:01;17.80;95.40
25352;DHT22;13304;48.464;8.712;2023-10-19T14:49:29;17.80;95.30
25352;DHT22;13304;48.464;8.712;2023-10-19T14:51:55;17.80;95.30
25352;DHT22;13304;48.464;8.712;2023-10-19T14:54:21;17.90;95.30
25352;DHT22;13304;48.464;8.712;2023-10-19T14:56:47;17.90;95.30
25352;DHT22;13304;48.464;8.712;2023-10-19T14:59:13;17.90;95.30
25352;DHT22;13304;48.464;8.712;2023-10-19T15:01:39;17.90;95.20
25352;DHT22;13304;48.464;8.712;2023-10-19T15:04:04;17.90;95.20
25352;DHT22;13304;48.464;8.712;2023-10-19T15:06:31;17.90;95.60
25352;DHT22;13304;48.464;8.712;2023-10-19T15:08:56;17.90;95.30
25352;DHT22;13304;48.464;8.712;2023-10-19T15:11:22;18.00;95.30
25352;DHT22;13304;48.464;8.712;2023-10-19T15:13:50;18.00;95.20
25352;DHT22;13304;48.464;8.712;2023-10-19T15:16:16;18.00;95.20
25352;DHT22;13304;48.464;8.712;2023-10-19T15:18:42;18.00;95.20
25352;DHT22;13304;48.464;8.712;2023-10-19T15:21:08;18.00;95.10
25352;DHT22;13304;48.464;8.712;2023-10-19T15:23:34;18.00;95.10
25352;DHT22;13304;48.464;8.712;2023-10-19T15:26:00;18.00;95.10
25352;DHT22;13304;48.464;8.712;2023-10-19T15:28:25;18.00;95.00
25352;DHT22;13304;48.464;8.712;2023-10-19T15:30:51;18.00;95.00
25352;DHT22;13304;48.464;8.712;2023-10-19T15:33:16;18.00;95.00
25352;DHT22;13304;48.464;8.712;2023-10-19T15:35:43;18.00;95.40
25352;DHT22;13304;48.464;8.712;2023-10-19T15:38:12;18.00;95.00
25352;DHT22;13304;48.464;8.712;2023-10-19T15:40:38;18.00;95.00
25352;DHT22;13304;48.464;8.712;2023-10-19T15:43:05;18.00;94.80